createdAt,value
2019-04-03T00:01:16.543Z,11.10
2019-04-03T00:03:45.965Z,11.40
2019-04-03T00:06:16.675Z,11.40
2019-04-03T00:08:46.154Z,11.00
2019-04-03T00:11:15.606Z,11.10
2019-04-03T00:13:45.094Z,11.10
2019-04-03T00:16:16.089Z,11.10
2019-04-03T00:18:47.601Z,10.80
2019-04-03T00:21:19.756Z,10.90
2019-04-03T00:23:48.967Z,10.70
2019-04-03T00:26:18.407Z,10.80
2019-04-03T00:28:47.835Z,10.70
2019-04-03T00:31:17.283Z,10.90
2019-04-03T00:33:46.771Z,11.00
2019-04-03T00:36:16.219Z,11.10
2019-04-03T00:38:45.712Z,10.80
2019-04-03T00:41:16.435Z,11.00
2019-04-03T00:43:45.887Z,11.00
2019-04-03T00:46:16.563Z,10.80
2019-04-03T00:48:45.975Z,10.60
2019-04-03T00:51:15.425Z,10.60
2019-04-03T00:53:45.104Z,10.40
2019-04-03T00:56:15.784Z,10.30
2019-04-03T00:58:45.271Z,10.30
2019-04-03T01:01:14.888Z,10.20
2019-04-03T01:03:44.376Z,10.20
2019-04-03T01:06:13.830Z,10.30
2019-04-03T01:08:43.355Z,10.40
2019-04-03T01:11:14.035Z,10.60
2019-04-03T01:13:43.566Z,10.50
2019-04-03T01:16:13.016Z,10.40
2019-04-03T01:18:42.446Z,10.40
2019-04-03T01:21:13.123Z,10.30
2019-04-03T01:23:42.578Z,10.30
2019-04-03T01:26:11.991Z,10.60
2019-04-03T01:28:42.319Z,10.60
2019-04-03T01:31:14.214Z,10.70
2019-04-03T01:33:43.094Z,10.80
2019-04-03T01:36:13.878Z,10.70
2019-04-03T01:38:43.501Z,10.70
2019-04-03T01:41:12.928Z,10.60
2019-04-03T01:43:42.362Z,10.60
2019-04-03T01:46:13.051Z,10.50
2019-04-03T01:48:42.494Z,10.50
2019-04-03T01:51:11.927Z,10.30
2019-04-03T01:53:41.362Z,10.40
2019-04-03T01:56:12.050Z,10.10
2019-04-03T01:58:41.491Z,10.20
2019-04-03T02:01:12.187Z,9.90
2019-04-03T02:03:42.221Z,9.90
2019-04-03T02:06:13.596Z,10.20
2019-04-03T02:08:44.812Z,10.30
2019-04-03T02:11:16.715Z,10.20
2019-04-03T02:13:47.492Z,10.20
2019-04-03T02:16:17.010Z,10.30
2019-04-03T02:18:46.512Z,10.30
2019-04-03T02:21:17.204Z,10.20
2019-04-03T02:23:46.803Z,10.10
2019-04-03T02:26:16.454Z,9.90
2019-04-03T02:28:45.939Z,9.90
2019-04-03T02:31:19.216Z,10.10
2019-04-03T02:33:47.802Z,10.20
2019-04-03T02:36:17.259Z,10.10
2019-04-03T02:38:46.712Z,10.20
2019-04-03T02:41:17.402Z,9.90
2019-04-03T02:43:47.647Z,9.80
2019-04-03T02:46:18.421Z,9.90
2019-04-03T02:48:47.867Z,9.80
2019-04-03T02:51:19.703Z,9.90
2019-04-03T02:53:49.616Z,10.00
2019-04-03T02:56:19.036Z,9.80
2019-04-03T02:58:48.474Z,9.70
2019-04-03T03:01:17.911Z,9.70
2019-04-03T03:03:49.803Z,9.50
2019-04-03T03:06:18.423Z,9.70
2019-04-03T03:08:47.910Z,9.80
2019-04-03T03:11:17.603Z,9.80
2019-04-03T03:13:47.017Z,9.90
2019-04-03T03:16:18.092Z,10.00
2019-04-03T03:18:47.499Z,9.90
2019-04-03T03:21:17.104Z,9.90
2019-04-03T03:23:46.836Z,9.90
2019-04-03T03:26:16.371Z,9.60
2019-04-03T03:28:47.333Z,9.70
2019-04-03T03:31:18.846Z,9.90
2019-04-03T03:33:48.966Z,10.00
2019-04-03T03:36:24.054Z,10.00
2019-04-03T03:38:51.070Z,10.10
2019-04-03T03:41:23.256Z,10.10
2019-04-03T03:43:53.301Z,10.00
2019-04-03T03:46:27.897Z,9.90
2019-04-03T03:48:55.039Z,9.90
2019-04-03T03:51:24.531Z,9.80
2019-04-03T03:53:54.070Z,9.70
2019-04-03T03:56:23.490Z,9.60
2019-04-03T03:58:53.209Z,9.60
2019-04-03T04:01:22.636Z,9.80
2019-04-03T04:03:52.108Z,9.80
2019-04-03T04:06:22.749Z,9.90
2019-04-03T04:08:52.435Z,9.90
2019-04-03T04:11:23.132Z,9.60
2019-04-03T04:13:52.574Z,9.60
2019-04-03T04:16:23.259Z,9.50
2019-04-03T04:18:55.922Z,9.30
2019-04-03T04:21:23.740Z,9.20
2019-04-03T04:23:56.003Z,9.20
2019-04-03T04:26:24.486Z,9.20
2019-04-03T04:28:53.918Z,9.20
2019-04-03T04:31:24.599Z,9.10
2019-04-03T04:33:54.045Z,9.40
2019-04-03T04:36:24.924Z,9.70
2019-04-03T04:38:55.834Z,9.70
2019-04-03T04:41:25.404Z,9.70
2019-04-03T04:43:54.910Z,9.80
2019-04-03T04:46:24.324Z,9.80
2019-04-03T04:48:54.055Z,9.80
2019-04-03T04:51:23.943Z,9.70
2019-04-03T04:53:54.534Z,9.70
2019-04-03T04:56:23.960Z,9.80
2019-04-03T04:58:53.570Z,9.90
2019-04-03T05:01:23.112Z,9.80
2019-04-03T05:03:53.926Z,9.80
2019-04-03T05:06:24.867Z,9.90
2019-04-03T05:08:54.274Z,9.90
2019-04-03T05:11:24.989Z,9.80
2019-04-03T05:13:54.433Z,9.70
2019-04-03T05:16:25.035Z,9.50
2019-04-03T05:18:55.000Z,9.60
2019-04-03T05:21:24.530Z,9.70
2019-04-03T05:23:55.685Z,9.70
2019-04-03T05:26:26.316Z,9.70
2019-04-03T05:28:57.646Z,9.60
2019-04-03T05:31:26.822Z,9.50
2019-04-03T05:33:56.487Z,9.30
2019-04-03T05:36:27.254Z,9.30
2019-04-03T05:38:56.663Z,9.40
2019-04-03T05:41:28.355Z,9.50
2019-04-03T05:43:58.095Z,9.40
2019-04-03T05:46:27.549Z,9.40
2019-04-03T05:48:56.967Z,9.50
2019-04-03T05:51:29.237Z,9.50
2019-04-03T05:53:57.608Z,9.50
2019-04-03T05:56:28.318Z,9.60
2019-04-03T05:59:01.324Z,9.80
2019-04-03T06:01:28.787Z,9.80
2019-04-03T06:03:58.199Z,10.00
2019-04-03T06:06:28.921Z,10.00
2019-04-03T06:08:58.335Z,10.30
2019-04-03T06:11:29.055Z,10.50
2019-04-03T06:13:58.624Z,10.60
2019-04-03T06:16:29.282Z,10.40
2019-04-03T06:18:59.396Z,10.50
2019-04-03T06:21:30.511Z,10.80
2019-04-03T06:23:59.922Z,10.80
2019-04-03T06:26:29.571Z,10.50
2019-04-03T06:28:58.980Z,10.30
2019-04-03T06:31:29.707Z,10.40
2019-04-03T06:33:59.118Z,10.60
2019-04-03T06:36:29.843Z,10.60
2019-04-03T06:38:59.324Z,10.80
2019-04-03T06:41:30.146Z,11.00
2019-04-03T06:43:59.709Z,11.00
2019-04-03T06:46:29.858Z,11.00
2019-04-03T06:48:59.532Z,11.10
2019-04-03T06:51:30.260Z,11.10
2019-04-03T06:54:00.001Z,11.30
2019-04-03T06:56:29.526Z,11.60
2019-04-03T06:58:58.936Z,12.00
2019-04-03T07:01:29.641Z,12.20
2019-04-03T07:03:59.327Z,12.40
2019-04-03T07:06:28.896Z,12.20
2019-04-03T07:08:58.302Z,12.10
2019-04-03T07:11:27.807Z,12.30
2019-04-03T07:13:57.219Z,12.40
2019-04-03T07:16:28.599Z,12.80
2019-04-03T07:18:58.546Z,13.50
2019-04-03T07:21:29.270Z,13.50
2019-04-03T07:24:00.932Z,14.40
2019-04-03T07:26:31.219Z,14.80
2019-04-03T07:29:00.698Z,14.90
2019-04-03T07:31:31.700Z,14.40
2019-04-03T07:34:02.937Z,14.80
2019-04-03T07:36:33.438Z,15.70
2019-04-03T07:39:03.088Z,16.00
2019-04-03T07:41:34.235Z,15.50
2019-04-03T07:44:04.337Z,15.30
2019-04-03T07:46:35.173Z,15.20
2019-04-03T07:49:04.631Z,14.60
2019-04-03T07:51:35.646Z,15.00
2019-04-03T07:54:05.116Z,15.00
2019-04-03T07:56:34.587Z,15.60
2019-04-03T07:59:04.301Z,16.50
2019-04-03T08:01:34.976Z,17.20
2019-04-03T08:04:04.419Z,17.70
2019-04-03T08:06:35.878Z,18.20
2019-04-03T08:09:09.679Z,18.60
2019-04-03T08:11:40.192Z,19.00
2019-04-03T08:14:10.006Z,19.70
2019-04-03T08:16:42.161Z,19.00
2019-04-03T08:19:11.242Z,17.90
2019-04-03T08:21:42.259Z,17.60
2019-04-03T08:24:11.961Z,18.50
2019-04-03T08:26:41.420Z,19.30
2019-04-03T08:29:10.852Z,18.30
2019-04-03T08:31:42.744Z,18.70
2019-04-03T08:34:16.657Z,18.80
2019-04-03T08:36:44.056Z,17.70
2019-04-03T08:39:15.187Z,17.70
2019-04-03T08:41:44.508Z,17.90
2019-04-03T08:44:14.060Z,18.50
2019-04-03T08:46:44.674Z,19.20
2019-04-03T08:49:14.191Z,20.00
2019-04-03T08:51:43.732Z,20.10
2019-04-03T08:54:13.150Z,20.20
2019-04-03T08:56:42.558Z,20.40
2019-04-03T08:59:13.558Z,20.40
2019-04-03T09:01:43.220Z,19.90
2019-04-03T09:04:12.699Z,19.40
2019-04-03T09:06:42.150Z,19.50
2019-04-03T09:09:11.659Z,20.70
2019-04-03T09:11:41.269Z,20.70
2019-04-03T09:14:10.684Z,20.70
2019-04-03T09:16:41.364Z,20.30
2019-04-03T09:19:10.901Z,20.40
2019-04-03T09:21:41.580Z,20.40
2019-04-03T09:24:11.019Z,19.80
2019-04-03T09:26:40.491Z,19.40
2019-04-03T09:29:12.504Z,20.00
2019-04-03T09:31:42.219Z,19.70
2019-04-03T09:34:11.658Z,19.50
2019-04-03T09:36:42.340Z,20.10
2019-04-03T09:39:14.232Z,21.20
2019-04-03T09:41:44.543Z,20.30
2019-04-03T09:44:14.342Z,20.50
2019-04-03T09:46:45.117Z,22.10
2019-04-03T09:49:14.796Z,21.50
2019-04-03T09:51:45.367Z,22.70
2019-04-03T09:54:14.806Z,24.00
2019-04-03T09:56:57.941Z,23.90
2019-04-03T09:59:16.607Z,24.40
2019-04-03T10:01:48.299Z,24.50
2019-04-03T10:04:20.485Z,24.20
2019-04-03T10:06:50.707Z,24.20
2019-04-03T10:09:20.131Z,24.00
2019-04-03T10:11:51.952Z,24.70
2019-04-03T10:14:21.959Z,23.80
2019-04-03T10:16:51.450Z,23.70
2019-04-03T10:19:21.232Z,24.30
2019-04-03T10:21:53.425Z,24.90
2019-04-03T10:24:23.319Z,25.30
2019-04-03T10:26:52.822Z,25.70
2019-04-03T10:29:22.259Z,26.80
2019-04-03T10:31:53.183Z,26.30
2019-04-03T10:34:22.808Z,26.10
2019-04-03T10:36:53.781Z,25.60
2019-04-03T10:39:23.325Z,24.50
2019-04-03T10:41:52.807Z,24.70
2019-04-03T10:44:22.258Z,24.70
2019-04-03T10:46:53.356Z,24.80
2019-04-03T10:49:22.825Z,24.30
2019-04-03T10:51:52.250Z,24.20
2019-04-03T10:54:21.937Z,23.90
2019-04-03T10:56:52.719Z,25.20
2019-04-03T10:59:22.118Z,24.80
2019-04-03T11:01:52.826Z,26.60
2019-04-03T11:04:22.231Z,27.30
2019-04-03T11:06:52.961Z,27.10
2019-04-03T11:09:22.435Z,27.30
2019-04-03T11:11:53.042Z,27.40
2019-04-03T11:14:22.620Z,27.20
2019-04-03T11:16:53.733Z,26.20
2019-04-03T11:19:23.271Z,25.80
2019-04-03T11:21:56.032Z,26.60
2019-04-03T11:24:25.000Z,28.10
2019-04-03T11:26:54.854Z,28.60
2019-04-03T11:29:24.247Z,27.60
2019-04-03T11:31:54.958Z,27.40
2019-04-03T11:34:24.625Z,28.10
2019-04-03T11:36:54.191Z,27.40
2019-04-03T11:39:23.592Z,23.80
2019-04-03T11:41:55.008Z,25.10
2019-04-03T11:44:24.358Z,24.20
2019-04-03T11:46:53.869Z,26.00
2019-04-03T11:49:23.271Z,26.40
2019-04-03T11:51:52.923Z,26.70
2019-04-03T11:54:22.930Z,25.50
2019-04-03T11:56:56.339Z,24.40
2019-04-03T11:59:24.918Z,23.80
2019-04-03T12:01:55.655Z,24.90
2019-04-03T12:04:25.136Z,25.40
2019-04-03T12:06:54.931Z,25.90
2019-04-03T12:09:24.963Z,26.70
2019-04-03T12:11:55.530Z,26.90
2019-04-03T12:14:25.049Z,26.60
2019-04-03T12:16:57.981Z,26.30
2019-04-03T12:19:27.326Z,26.30
2019-04-03T12:21:58.062Z,26.20
2019-04-03T12:24:27.545Z,26.00
2019-04-03T12:26:57.124Z,25.80
2019-04-03T12:29:26.532Z,25.10
2019-04-03T12:31:56.031Z,23.60
2019-04-03T12:34:25.519Z,23.80
2019-04-03T12:36:56.224Z,23.80
2019-04-03T12:39:27.316Z,23.80
2019-04-03T12:41:57.237Z,23.80
2019-04-03T12:44:26.897Z,24.10
2019-04-03T12:46:56.376Z,24.00
2019-04-03T12:49:25.848Z,23.00
2019-04-03T12:51:56.783Z,22.40
2019-04-03T12:54:26.339Z,22.30
2019-04-03T12:56:57.049Z,22.40
2019-04-03T12:59:26.520Z,23.40
2019-04-03T13:01:56.153Z,23.80
2019-04-03T13:04:26.519Z,23.90
2019-04-03T13:06:58.099Z,22.90
2019-04-03T13:09:27.575Z,22.30
2019-04-03T13:11:57.304Z,23.00
2019-04-03T13:14:27.652Z,24.00
2019-04-03T13:16:57.700Z,24.30
2019-04-03T13:19:27.111Z,24.50
2019-04-03T13:21:56.547Z,23.90
2019-04-03T13:24:25.955Z,23.40
2019-04-03T13:26:58.155Z,22.20
2019-04-03T13:29:27.704Z,22.20
2019-04-03T13:31:58.427Z,22.90
2019-04-03T13:34:29.739Z,22.70
2019-04-03T13:36:58.972Z,22.80
2019-04-03T13:39:28.746Z,22.50
2019-04-03T13:41:59.499Z,22.40
2019-04-03T13:44:28.945Z,21.90
2019-04-03T13:46:59.609Z,21.60
2019-04-03T13:49:30.740Z,21.40
2019-04-03T13:52:05.876Z,21.10
2019-04-03T13:54:32.557Z,21.40
2019-04-03T13:57:02.213Z,21.40
2019-04-03T13:59:31.859Z,21.50
2019-04-03T14:02:02.586Z,21.20
2019-04-03T14:04:32.404Z,20.90
2019-04-03T14:07:03.874Z,20.70
2019-04-03T14:09:33.815Z,20.70
2019-04-03T14:12:05.222Z,20.80
2019-04-03T14:14:34.289Z,20.60
2019-04-03T14:17:05.343Z,20.70
2019-04-03T14:19:43.126Z,20.70
2019-04-03T14:22:07.039Z,20.90
2019-04-03T14:24:44.069Z,20.80
2019-04-03T14:27:18.402Z,20.80
2019-04-03T14:29:39.194Z,20.60
2019-04-03T14:32:10.251Z,20.00
2019-04-03T14:34:40.785Z,20.00
2019-04-03T14:37:10.803Z,19.90
2019-04-03T14:39:41.393Z,19.80
2019-04-03T14:42:11.238Z,19.80
2019-04-03T14:44:41.942Z,19.70
2019-04-03T14:47:13.249Z,19.70
2019-04-03T14:49:43.077Z,19.60
2019-04-03T14:52:13.185Z,19.50
2019-04-03T14:54:42.706Z,19.40
2019-04-03T14:57:19.746Z,19.40
2019-04-03T14:59:43.182Z,19.20
2019-04-03T15:02:14.022Z,19.20
2019-04-03T15:04:43.471Z,19.30
2019-04-03T15:07:13.198Z,19.60
2019-04-03T15:09:43.126Z,19.50
2019-04-03T15:12:13.960Z,19.70
2019-04-03T15:14:43.399Z,19.70
2019-04-03T15:17:14.283Z,19.40
2019-04-03T15:19:45.306Z,19.20
2019-04-03T15:22:14.754Z,19.10
2019-04-03T15:24:44.627Z,19.20
2019-04-03T15:27:14.796Z,19.20
2019-04-03T15:29:44.359Z,19.20
2019-04-03T15:32:14.268Z,19.10
2019-04-03T15:34:43.825Z,19.20
2019-04-03T15:37:15.301Z,19.10
2019-04-03T15:39:47.795Z,18.90
2019-04-03T15:42:16.432Z,18.90
2019-04-03T15:44:45.834Z,18.90
2019-04-03T15:47:18.876Z,19.10
2019-04-03T15:49:46.391Z,19.00
2019-04-03T15:52:15.990Z,19.00
2019-04-03T15:54:45.460Z,19.00
2019-04-03T15:57:14.879Z,18.90
2019-04-03T15:59:44.502Z,19.00
2019-04-03T16:02:15.903Z,18.90
2019-04-03T16:04:45.619Z,18.80
2019-04-03T16:07:15.115Z,18.80
2019-04-03T16:09:44.690Z,18.70
2019-04-03T16:12:14.683Z,18.70
2019-04-03T16:14:44.268Z,18.70
2019-04-03T16:17:15.560Z,18.70
2019-04-03T16:19:45.326Z,18.80
2019-04-03T16:22:16.299Z,18.60
2019-04-03T16:24:45.894Z,18.60
2019-04-03T16:27:16.680Z,18.50
2019-04-03T16:29:46.133Z,18.50
2019-04-03T16:32:16.914Z,18.40
2019-04-03T16:34:46.430Z,18.40
2019-04-03T16:37:16.195Z,18.20
2019-04-03T16:39:46.086Z,18.20
2019-04-03T16:42:15.972Z,18.20
2019-04-03T16:44:46.986Z,18.20
2019-04-03T16:47:18.030Z,18.20
2019-04-03T16:49:47.688Z,18.20
2019-04-03T16:52:18.721Z,18.00
2019-04-03T16:54:48.552Z,18.00
2019-04-03T16:57:21.467Z,18.00
2019-04-03T16:59:49.664Z,18.00
2019-04-03T17:02:23.861Z,17.80
2019-04-03T17:04:51.789Z,17.80
2019-04-03T17:07:22.520Z,17.70
2019-04-03T17:09:52.015Z,17.60
2019-04-03T17:12:22.807Z,17.60
2019-04-03T17:14:54.964Z,17.60
2019-04-03T17:17:25.762Z,17.60
2019-04-03T17:19:55.581Z,17.60
2019-04-03T17:22:25.079Z,17.50
2019-04-03T17:24:56.360Z,17.40
2019-04-03T17:27:25.699Z,17.40
2019-04-03T17:29:55.212Z,17.50
2019-04-03T17:32:28.967Z,17.40
2019-04-03T17:34:57.447Z,17.50
2019-04-03T17:37:30.739Z,17.40
2019-04-03T17:39:59.501Z,17.30
2019-04-03T17:42:30.679Z,17.20
2019-04-03T17:45:00.119Z,17.30
2019-04-03T17:47:31.082Z,17.40
2019-04-03T17:50:00.485Z,17.20
2019-04-03T17:52:31.698Z,17.40
2019-04-03T17:55:01.103Z,17.10
2019-04-03T17:57:31.913Z,16.90
2019-04-03T18:00:01.321Z,16.90
2019-04-03T18:02:32.316Z,16.60
2019-04-03T18:05:01.798Z,16.40
2019-04-03T18:07:32.716Z,16.20
2019-04-03T18:10:02.205Z,16.00
2019-04-03T18:12:33.143Z,15.60
2019-04-03T18:15:02.707Z,13.90
2019-04-03T18:17:33.425Z,13.50
2019-04-03T18:20:02.957Z,13.00
2019-04-03T18:22:33.772Z,12.60
2019-04-03T18:25:03.315Z,12.00
2019-04-03T18:27:34.236Z,11.80
2019-04-03T18:30:04.783Z,11.30
2019-04-03T18:32:35.689Z,11.00
2019-04-03T18:35:07.131Z,10.80
2019-04-03T18:37:40.657Z,10.90
2019-04-03T18:40:14.258Z,10.30
2019-04-03T18:42:43.187Z,10.10
2019-04-03T18:45:24.519Z,10.10
2019-04-03T18:47:46.469Z,9.90
2019-04-03T18:50:16.653Z,9.80
2019-04-03T18:52:47.424Z,9.90
2019-04-03T18:55:16.833Z,9.70
2019-04-03T18:57:49.566Z,9.30
2019-04-03T19:00:18.565Z,9.10
2019-04-03T19:02:49.338Z,9.10
2019-04-03T19:05:18.825Z,8.70
2019-04-03T19:07:49.734Z,8.80
2019-04-03T19:10:22.843Z,8.70
2019-04-03T19:12:51.536Z,8.30
2019-04-03T19:15:21.003Z,8.30
2019-04-03T19:18:00.059Z,8.30
2019-04-03T19:20:22.808Z,8.20
2019-04-03T19:23:01.829Z,8.20
2019-04-03T19:25:23.391Z,8.30
2019-04-03T19:27:52.916Z,8.40
2019-04-03T19:30:22.494Z,8.10
2019-04-03T19:32:52.954Z,7.90
2019-04-03T19:35:22.457Z,7.90
2019-04-03T19:37:53.206Z,7.70
2019-04-03T19:40:22.758Z,7.70
2019-04-03T19:42:52.846Z,7.80
2019-04-03T19:45:24.067Z,7.60
2019-04-03T19:47:57.305Z,7.30
2019-04-03T19:50:29.942Z,7.50
2019-04-03T19:53:00.073Z,7.60
2019-04-03T19:55:30.876Z,7.50
2019-04-03T19:58:00.683Z,7.30
2019-04-03T20:00:33.102Z,7.60
2019-04-03T20:03:04.395Z,7.30
2019-04-03T20:05:35.140Z,7.30
2019-04-03T20:08:05.522Z,7.30
2019-04-03T20:10:37.844Z,7.30
2019-04-03T20:13:08.776Z,7.10
2019-04-03T20:15:39.121Z,7.40
2019-04-03T20:18:08.963Z,7.00
2019-04-03T20:20:38.774Z,7.20
2019-04-03T20:23:10.709Z,7.20
2019-04-03T20:25:40.046Z,7.50
2019-04-03T20:28:10.231Z,6.90
2019-04-03T20:30:41.027Z,6.90
2019-04-03T20:33:11.700Z,7.00
2019-04-03T20:35:41.755Z,6.90
2019-04-03T20:38:11.199Z,6.80
2019-04-03T20:40:40.662Z,7.00
2019-04-03T20:43:11.867Z,6.70
2019-04-03T20:45:42.429Z,6.60
2019-04-03T20:48:12.058Z,6.60
2019-04-03T20:50:41.461Z,7.00
2019-04-03T20:53:11.115Z,7.30
2019-04-03T20:55:40.519Z,7.50
2019-04-03T20:58:10.120Z,7.20
2019-04-03T21:00:40.904Z,6.80
2019-04-03T21:03:12.580Z,6.30
2019-04-03T21:05:42.804Z,6.40
2019-04-03T21:08:12.246Z,6.20
2019-04-03T21:10:43.018Z,6.50
2019-04-03T21:13:15.216Z,6.40
2019-04-03T21:15:45.316Z,6.30
2019-04-03T21:18:14.683Z,6.10
2019-04-03T21:20:45.963Z,6.00
2019-04-03T21:23:15.480Z,5.90
2019-04-03T21:25:44.959Z,6.00
2019-04-03T21:28:14.483Z,6.30
2019-04-03T21:30:45.172Z,6.90
2019-04-03T21:33:17.184Z,6.90
2019-04-03T21:35:47.102Z,6.90
2019-04-03T21:38:16.574Z,6.80
2019-04-03T21:40:47.484Z,6.70
2019-04-03T21:43:17.028Z,6.30
2019-04-03T21:45:47.796Z,6.40
2019-04-03T21:48:17.237Z,6.50
2019-04-03T21:50:49.723Z,6.50
2019-04-03T21:53:19.071Z,6.60
2019-04-03T21:55:48.468Z,6.70
2019-04-03T21:58:17.901Z,6.50
2019-04-03T22:00:58.577Z,6.30
2019-04-03T22:03:28.728Z,6.30
2019-04-03T22:05:58.214Z,6.50
2019-04-03T22:08:29.032Z,6.40
2019-04-03T22:10:59.253Z,6.30
2019-04-03T22:13:28.746Z,6.30
2019-04-03T22:15:58.305Z,6.20
2019-04-03T22:18:27.767Z,6.50
2019-04-03T22:20:57.235Z,6.70
2019-04-03T22:23:27.306Z,6.30
2019-04-03T22:25:58.249Z,6.50
2019-04-03T22:28:27.850Z,6.40
2019-04-03T22:30:58.628Z,6.40
2019-04-03T22:33:28.351Z,6.40
2019-04-03T22:35:59.042Z,6.60
2019-04-03T22:38:28.479Z,6.50
2019-04-03T22:40:57.879Z,6.50
2019-04-03T22:43:28.866Z,6.40
2019-04-03T22:45:58.287Z,6.50
2019-04-03T22:48:27.820Z,6.30
2019-04-03T22:50:57.186Z,6.30
2019-04-03T22:53:26.691Z,6.30
2019-04-03T22:55:56.094Z,6.30
2019-04-03T22:58:25.619Z,6.10
2019-04-03T23:00:57.238Z,6.20
2019-04-03T23:03:27.599Z,6.20
2019-04-03T23:05:58.435Z,6.30
2019-04-03T23:08:28.036Z,6.10
2019-04-03T23:11:00.736Z,6.10
2019-04-03T23:13:28.582Z,6.00
2019-04-03T23:15:59.259Z,6.00
2019-04-03T23:18:28.699Z,6.10
2019-04-03T23:20:59.412Z,6.00
2019-04-03T23:23:28.851Z,6.10
2019-04-03T23:26:00.594Z,5.90
2019-04-03T23:28:29.632Z,5.90
2019-04-03T23:31:00.429Z,6.00
2019-04-03T23:33:30.004Z,5.90
2019-04-03T23:36:00.970Z,6.10
2019-04-03T23:38:30.579Z,6.10
2019-04-03T23:41:01.307Z,6.20
2019-04-03T23:43:30.819Z,6.20
2019-04-03T23:46:01.506Z,6.50
2019-04-03T23:48:31.062Z,6.30
2019-04-03T23:51:01.742Z,6.40
2019-04-03T23:53:32.597Z,6.20
2019-04-03T23:56:03.660Z,6.10
2019-04-03T23:58:33.168Z,6.50
